Alexandra, New Zealand
Current Conditions -  °F | °C
As of 2:00 AM on Wednesday 22 Oct 2014 (Local Time) from NZCH Reporting Station
Clear Clear  
Wind Chill:   Ceiling: Unl
Heat Index:   Visibility: 6mi
Dew Point:   Wind: 5mph
Humidity: 87%   Direction: 270°W
Pressure: 30.21"   Gusts: NA
Location:  45.25°S, 169.39°E
Report Text: NZCH 211400Z AUTO 27004KT 9999 NCD 07/05 Q1023 NOSIG
Loading
Personal Weather Stations






























Interactive Weather Map
Tropical Storm Tracking
New forecast layout! Learn more

10-Day Weather Forecast

Advertisements
Track Severe Weather on mobile